createdAt,value
2022-11-24T00:00:43.296Z,-0.82
2022-11-24T00:06:07.637Z,-0.84
2022-11-24T00:11:14.211Z,-0.87
2022-11-24T00:16:20.239Z,-0.94
2022-11-24T00:21:24.489Z,-0.97
2022-11-24T00:26:30.257Z,-0.96
2022-11-24T00:31:38.527Z,-0.94
2022-11-24T00:36:42.394Z,-0.95
2022-11-24T00:41:45.508Z,-0.98
2022-11-24T00:46:48.675Z,-1.00
2022-11-24T00:51:52.141Z,-1.00
2022-11-24T00:56:55.174Z,-0.96
2022-11-24T01:01:58.201Z,-0.93
2022-11-24T01:07:01.291Z,-0.88
2022-11-24T01:12:04.543Z,-0.88
2022-11-24T01:17:07.606Z,-0.92
2022-11-24T01:22:10.620Z,-0.99
2022-11-24T01:27:13.620Z,-0.95
2022-11-24T01:32:16.626Z,-0.88
2022-11-24T01:37:19.940Z,-0.79
2022-11-24T01:42:23.251Z,-0.78
2022-11-24T01:47:41.105Z,-0.81
2022-11-24T01:52:49.847Z,-0.85
2022-11-24T01:58:02.892Z,-0.88
2022-11-24T02:03:06.421Z,-0.84
2022-11-24T02:08:19.709Z,-0.84
2022-11-24T02:13:23.066Z,-0.88
2022-11-24T02:18:26.277Z,-0.91
2022-11-24T02:24:00.312Z,-0.99
2022-11-24T02:29:04.332Z,-1.02
2022-11-24T02:34:07.350Z,-0.96
2022-11-24T02:39:13.224Z,-0.91
2022-11-24T02:44:20.015Z,-0.95
2022-11-24T02:49:23.027Z,-1.03
2022-11-24T02:54:26.130Z,-1.10
2022-11-24T02:59:29.137Z,-1.14
2022-11-24T03:04:32.503Z,-1.07
2022-11-24T03:09:35.765Z,-1.03
2022-11-24T03:14:38.772Z,-1.02
2022-11-24T03:19:41.777Z,-1.03
2022-11-24T03:24:44.987Z,-1.07
2022-11-24T03:29:47.995Z,-1.04
2022-11-24T03:34:51.000Z,-0.95
2022-11-24T03:39:54.107Z,-0.84
2022-11-24T03:44:57.220Z,-0.76
2022-11-24T03:50:00.226Z,-0.74
2022-11-24T03:55:03.331Z,-0.75
2022-11-24T04:00:07.333Z,-0.77
2022-11-24T04:05:10.572Z,-0.79
2022-11-24T04:10:13.976Z,-0.79
2022-11-24T04:15:19.266Z,-0.76
2022-11-24T04:20:22.355Z,-0.71
2022-11-24T04:25:25.361Z,-0.69
2022-11-24T04:30:29.250Z,-0.69
2022-11-24T04:35:32.297Z,-0.72
2022-11-24T04:40:35.302Z,-0.72
2022-11-24T04:45:38.825Z,-0.68
2022-11-24T04:50:42.135Z,-0.64
2022-11-24T04:55:45.138Z,-0.62
2022-11-24T05:00:48.146Z,-0.69
2022-11-24T05:05:51.154Z,-0.78
2022-11-24T05:10:54.152Z,-0.79
2022-11-24T05:15:57.149Z,-0.76
2022-11-24T05:21:00.265Z,-0.73
2022-11-24T05:26:03.783Z,-0.72
2022-11-24T05:31:06.914Z,-0.72
2022-11-24T05:36:30.479Z,-0.77
2022-11-24T05:41:33.337Z,-0.84
2022-11-24T05:46:36.325Z,-0.88
2022-11-24T05:51:39.292Z,-0.87
2022-11-24T05:56:42.200Z,-0.83
2022-11-24T06:01:45.096Z,-0.79
2022-11-24T06:06:48.101Z,-0.76
2022-11-24T06:11:50.899Z,-0.74
2022-11-24T06:16:53.653Z,-0.71
2022-11-24T06:21:56.708Z,-0.65
2022-11-24T06:26:59.654Z,-0.58
2022-11-24T06:32:02.577Z,-0.58
2022-11-24T06:37:05.611Z,-0.60
2022-11-24T06:42:09.146Z,-0.60
2022-11-24T06:47:11.935Z,-0.58
2022-11-24T06:52:14.769Z,-0.63
2022-11-24T06:57:17.752Z,-0.63
2022-11-24T07:02:20.653Z,-0.53
2022-11-24T07:07:23.785Z,-0.39
2022-11-24T07:12:26.718Z,-0.29
2022-11-24T07:17:29.523Z,-0.30
2022-11-24T07:22:32.279Z,-0.30
2022-11-24T07:27:35.174Z,-0.28
2022-11-24T07:32:37.976Z,-0.28
2022-11-24T07:37:40.716Z,-0.27
2022-11-24T07:42:43.418Z,-0.22
2022-11-24T07:47:46.249Z,-0.18
2022-11-24T07:52:49.220Z,-0.11
2022-11-24T07:57:52.093Z,-0.05
2022-11-24T08:02:54.810Z,-0.02
2022-11-24T08:07:59.997Z,-0.01
2022-11-24T08:13:02.763Z,-0.01
2022-11-24T08:18:06.078Z,0.02
2022-11-24T08:23:09.070Z,0.05
2022-11-24T08:28:11.848Z,0.02
2022-11-24T08:33:14.607Z,-0.04
2022-11-24T08:38:17.460Z,-0.08
2022-11-24T08:43:20.363Z,-0.09
2022-11-24T08:48:23.167Z,-0.08
2022-11-24T08:53:26.113Z,-0.02
2022-11-24T08:58:30.200Z,0.04
2022-11-24T09:03:32.918Z,0.03
2022-11-24T09:08:37.521Z,-0.03
2022-11-24T09:13:41.064Z,-0.07
2022-11-24T09:18:44.464Z,-0.11
2022-11-24T09:23:49.107Z,-0.11
2022-11-24T09:28:56.321Z,-0.04
2022-11-24T09:33:59.655Z,0.07
2022-11-24T09:39:03.164Z,0.10
2022-11-24T09:44:16.319Z,0.12
2022-11-24T09:49:51.695Z,0.17
2022-11-24T09:55:00.500Z,0.20
2022-11-24T10:00:12.569Z,0.26
2022-11-24T10:05:15.536Z,0.31
2022-11-24T10:10:37.050Z,0.37
2022-11-24T10:16:11.080Z,0.37
2022-11-24T10:21:32.837Z,0.33
2022-11-24T10:26:39.555Z,0.30
2022-11-24T10:31:43.730Z,0.35
2022-11-24T10:37:08.306Z,0.47
2022-11-24T10:42:18.260Z,0.56
2022-11-24T10:47:22.909Z,0.58
2022-11-24T10:52:28.828Z,0.58
2022-11-24T10:57:37.328Z,0.51
2022-11-24T11:02:40.585Z,0.49
2022-11-24T11:07:43.743Z,0.52
2022-11-24T11:12:46.813Z,0.56
2022-11-24T11:17:52.534Z,0.56
2022-11-24T11:22:57.539Z,0.51
2022-11-24T11:28:29.238Z,0.43
2022-11-24T11:38:59.733Z,0.40
2022-11-24T11:44:11.748Z,0.46
2022-11-24T11:49:14.569Z,0.51
2022-11-24T11:54:34.060Z,0.47
2022-11-24T12:00:05.587Z,0.42
2022-11-24T12:05:14.367Z,0.39
2022-11-24T12:10:33.879Z,0.34
2022-11-24T12:15:56.986Z,0.29
2022-11-24T12:21:29.486Z,0.30
2022-11-24T12:26:41.443Z,0.25
2022-11-24T12:32:03.802Z,0.25
2022-11-24T12:37:24.806Z,0.31
2022-11-24T12:42:36.715Z,0.37
2022-11-24T12:48:07.337Z,0.41
2022-11-24T12:53:14.994Z,0.45
2022-11-24T12:58:31.659Z,0.47
2022-11-24T13:04:12.548Z,0.45
2022-11-24T13:09:15.812Z,0.38
2022-11-24T13:14:22.867Z,0.39
2022-11-24T13:19:31.137Z,0.47
2022-11-24T13:24:37.451Z,0.55
2022-11-24T13:30:01.356Z,0.58
2022-11-24T13:35:14.803Z,0.52
2022-11-24T13:40:18.341Z,0.44
2022-11-24T13:45:39.545Z,0.49
2022-11-24T13:50:51.929Z,0.57
2022-11-24T13:55:59.977Z,0.61
2022-11-24T14:01:08.903Z,0.64
2022-11-24T14:06:25.827Z,0.65
2022-11-24T14:11:29.153Z,0.63
2022-11-24T14:16:31.851Z,0.61
2022-11-24T14:21:38.253Z,0.62
2022-11-24T14:26:41.761Z,0.65
2022-11-24T14:31:56.309Z,0.66
2022-11-24T14:37:00.755Z,0.67
2022-11-24T14:42:08.142Z,0.63
2022-11-24T14:47:32.250Z,0.58
2022-11-24T14:52:36.106Z,0.53
2022-11-24T14:57:42.601Z,0.49
2022-11-24T15:03:00.414Z,0.53
2022-11-24T15:08:03.991Z,0.57
2022-11-24T15:13:15.261Z,0.58
2022-11-24T15:18:30.044Z,0.57
2022-11-24T15:23:35.236Z,0.53
2022-11-24T15:28:38.533Z,0.42
2022-11-24T15:33:42.247Z,0.38
2022-11-24T15:38:44.955Z,0.37
2022-11-24T15:43:47.789Z,0.38
2022-11-24T15:48:50.592Z,0.36
2022-11-24T15:54:00.378Z,0.33
2022-11-24T15:59:04.184Z,0.31
2022-11-24T16:04:07.798Z,0.32
2022-11-24T16:09:15.034Z,0.30
2022-11-24T16:14:17.807Z,0.31
2022-11-24T16:19:20.562Z,0.32
2022-11-24T16:24:23.358Z,0.35
2022-11-24T16:29:26.211Z,0.39
2022-11-24T16:34:28.910Z,0.44
2022-11-24T16:39:31.666Z,0.44
2022-11-24T16:44:34.852Z,0.46
2022-11-24T16:49:37.887Z,0.45
2022-11-24T16:54:40.684Z,0.41
2022-11-24T16:59:43.738Z,0.34
2022-11-24T17:04:46.539Z,0.33
2022-11-24T17:09:49.437Z,0.29
2022-11-24T17:15:16.288Z,0.30
2022-11-24T17:20:15.479Z,0.34
2022-11-24T17:25:18.333Z,0.36
2022-11-24T17:30:21.112Z,0.34
2022-11-24T17:35:23.813Z,0.34
2022-11-24T17:40:29.080Z,0.33
2022-11-24T17:45:32.670Z,0.36
2022-11-24T17:50:35.521Z,0.40
2022-11-24T17:55:38.513Z,0.47
2022-11-24T18:00:41.251Z,0.46
2022-11-24T18:05:44.136Z,0.42
2022-11-24T18:10:46.991Z,0.40
2022-11-24T18:15:49.711Z,0.36
2022-11-24T18:21:01.211Z,0.31
2022-11-24T18:26:05.707Z,0.30
2022-11-24T18:31:12.261Z,0.33
2022-11-24T18:36:18.538Z,0.34
2022-11-24T18:41:22.367Z,0.31
2022-11-24T18:46:25.572Z,0.27
2022-11-24T18:51:28.437Z,0.27
2022-11-24T18:56:31.675Z,0.26
2022-11-24T19:01:34.521Z,0.25
2022-11-24T19:06:38.008Z,0.29
2022-11-24T19:11:43.477Z,0.35
2022-11-24T19:16:48.272Z,0.38
2022-11-24T19:21:51.533Z,0.34
2022-11-24T19:26:54.778Z,0.27
2022-11-24T19:31:57.710Z,0.26
2022-11-24T19:37:00.961Z,0.26
2022-11-24T19:42:04.880Z,0.30
2022-11-24T19:47:07.569Z,0.35
2022-11-24T19:52:10.325Z,0.39
2022-11-24T19:57:13.190Z,0.43
2022-11-24T20:02:16.129Z,0.46
2022-11-24T20:07:20.508Z,0.44
2022-11-24T20:12:23.539Z,0.40
2022-11-24T20:17:30.091Z,0.35
2022-11-24T20:22:32.932Z,0.33
2022-11-24T20:27:35.670Z,0.39
2022-11-24T20:32:38.440Z,0.44
2022-11-24T20:43:01.750Z,0.44
2022-11-24T20:48:04.633Z,0.35
2022-11-24T20:53:07.556Z,0.30
2022-11-24T20:58:11.593Z,0.25
2022-11-24T21:03:14.493Z,0.26
2022-11-24T21:08:19.458Z,0.36
2022-11-24T21:13:22.377Z,0.41
2022-11-24T21:18:25.135Z,0.44
2022-11-24T21:23:28.273Z,0.45
2022-11-24T21:28:31.151Z,0.45
2022-11-24T21:33:34.329Z,0.40
2022-11-24T21:38:37.144Z,0.35
2022-11-24T21:43:39.885Z,0.32
2022-11-24T21:48:43.057Z,0.27
2022-11-24T21:53:47.115Z,0.25
2022-11-24T21:58:53.620Z,0.29
2022-11-24T22:03:56.507Z,0.20
2022-11-24T22:08:59.329Z,0.10
2022-11-24T22:14:02.108Z,0.06
2022-11-24T22:19:05.020Z,0.10
2022-11-24T22:24:08.372Z,0.16
2022-11-24T22:29:11.235Z,0.23
2022-11-24T22:34:14.005Z,0.26
2022-11-24T22:39:16.742Z,0.25
2022-11-24T22:44:19.503Z,0.24
2022-11-24T22:49:23.672Z,0.20
2022-11-24T22:54:26.388Z,0.22
2022-11-24T22:59:29.177Z,0.27
2022-11-24T23:04:31.947Z,0.31
2022-11-24T23:09:34.767Z,0.36
2022-11-24T23:14:37.634Z,0.39
2022-11-24T23:19:40.495Z,0.36
2022-11-24T23:24:43.280Z,0.28
2022-11-24T23:29:46.094Z,0.29
2022-11-24T23:34:48.979Z,0.32
2022-11-24T23:39:51.993Z,0.37
2022-11-24T23:44:54.786Z,0.38
2022-11-24T23:49:57.469Z,0.33
